Time,TemperatureF,DewpointF,PressureIn,WindDirection,WindDirectionDegrees,WindSpeedMPH,WindSpeedGustMPH,Humidity,HourlyPrecipIn,Conditions,Clouds,dailyrainin,SoftwareType,DateUTC
2013-07-02 00:08:00,65.6,55.0,30.10,NNW,341,0.0,-999.0,69,-99.99,,,0.00,weatherlink.com 1.10,2013-07-02 05:08:00,
2013-07-02 00:23:00,64.5,56.0,30.09,NNW,341,0.0,-999.0,73,-99.99,,,0.00,weatherlink.com 1.10,2013-07-02 05:23:00,
2013-07-02 00:37:00,63.7,56.0,30.10,NNW,341,0.0,-999.0,75,-99.99,,,0.00,weatherlink.com 1.10,2013-07-02 05:37:00,
2013-07-02 00:51:00,62.5,56.0,30.10,NNW,340,0.0,-999.0,79,-99.99,,,0.00,weatherlink.com 1.10,2013-07-02 05:51:00,
2013-07-02 01:06:00,63.5,56.0,30.10,NNW,341,0.0,-999.0,76,-99.99,,,0.00,weatherlink.com 1.10,2013-07-02 06:06:00,
2013-07-02 01:20:00,63.5,56.0,30.10,NNW,341,0.0,-999.0,76,-99.99,,,0.00,weatherlink.com 1.10,2013-07-02 06:20:00,
2013-07-02 01:34:00,63.2,56.0,30.10,NNW,341,0.0,-999.0,76,-99.99,,,0.00,weatherlink.com 1.10,2013-07-02 06:34:00,
2013-07-02 01:48:00,62.1,56.0,30.10,NNW,340,0.0,-999.0,79,-99.99,,,0.00,weatherlink.com 1.10,2013-07-02 06:48:00,
2013-07-02 02:03:00,61.6,56.0,30.10,NNW,340,0.0,-999.0,83,-99.99,,,0.00,weatherlink.com 1.10,2013-07-02 07:03:00,
2013-07-02 02:17:00,61.6,55.0,30.10,NNW,340,0.0,-999.0,80,-99.99,,,0.00,weatherlink.com 1.10,2013-07-02 07:17:00,
2013-07-02 02:31:00,61.4,56.0,30.10,NNW,341,0.0,-999.0,82,-99.99,,,0.00,weatherlink.com 1.10,2013-07-02 07:31:00,
2013-07-02 02:45:00,61.5,56.0,30.10,NNW,340,0.0,-999.0,81,-99.99,,,0.00,weatherlink.com 1.10,2013-07-02 07:45:00,
2013-07-02 03:00:00,60.9,55.0,30.10,NNW,340,0.0,-999.0,82,-99.99,,,0.00,weatherlink.com 1.10,2013-07-02 08:00:00,
2013-07-02 03:14:00,61.0,55.0,30.10,NNW,341,0.0,-999.0,82,-99.99,,,0.00,weatherlink.com 1.10,2013-07-02 08:14:00,
2013-07-02 03:28:00,60.8,55.0,30.10,NNW,340,0.0,-999.0,81,-99.99,,,0.00,weatherlink.com 1.10,2013-07-02 08:28:00,
2013-07-02 03:43:00,61.4,55.0,30.10,North,351,2.0,-999.0,80,-99.99,,,0.00,weatherlink.com 1.10,2013-07-02 08:43:00,
2013-07-02 03:57:00,62.0,55.0,30.10,North,356,0.0,-999.0,78,-99.99,,,0.00,weatherlink.com 1.10,2013-07-02 08:57:00,
2013-07-02 04:11:00,61.1,55.0,30.10,North,357,0.0,-999.0,79,-99.99,,,0.00,weatherlink.com 1.10,2013-07-02 09:11:00,
2013-07-02 04:25:00,59.7,54.0,30.10,North,356,0.0,-999.0,82,-99.99,,,0.00,weatherlink.com 1.10,2013-07-02 09:25:00,
2013-07-02 04:40:00,59.0,54.0,30.11,North,357,0.0,-999.0,83,-99.99,,,0.00,weatherlink.com 1.10,2013-07-02 09:40:00,
2013-07-02 04:54:00,59.0,54.0,30.11,North,357,0.0,-999.0,84,-99.99,,,0.00,weatherlink.com 1.10,2013-07-02 09:54:00,
2013-07-02 05:08:00,59.0,54.0,30.11,North,357,0.0,-999.0,84,-99.99,,,0.00,weatherlink.com 1.10,2013-07-02 10:08:00,
2013-07-02 05:23:00,59.5,54.0,30.11,North,357,0.0,-999.0,82,-99.99,,,0.00,weatherlink.com 1.10,2013-07-02 10:23:00,
2013-07-02 05:37:00,59.5,54.0,30.11,North,357,0.0,-999.0,81,-99.99,,,0.00,weatherlink.com 1.10,2013-07-02 10:37:00,
2013-07-02 05:51:00,59.3,53.0,30.11,North,357,0.0,-999.0,81,-99.99,,,0.00,weatherlink.com 1.10,2013-07-02 10:51:00,
2013-07-02 06:06:00,59.6,53.0,30.11,North,357,0.0,-999.0,80,-99.99,,,0.00,weatherlink.com 1.10,2013-07-02 11:06:00,
2013-07-02 06:20:00,59.9,54.0,30.11,North,356,0.0,-999.0,81,-99.99,,,0.00,weatherlink.com 1.10,2013-07-02 11:20:00,
2013-07-02 06:34:00,60.3,54.0,30.11,North,356,0.0,-999.0,80,-99.99,,,0.00,weatherlink.com 1.10,2013-07-02 11:34:00,
2013-07-02 06:49:00,60.4,55.0,30.12,North,357,0.0,-999.0,82,-99.99,,,0.00,weatherlink.com 1.10,2013-07-02 11:49:00,
2013-07-02 07:03:00,60.5,55.0,30.12,NW,314,3.0,-999.0,81,-99.99,,,0.00,weatherlink.com 1.10,2013-07-02 12:03:00,
2013-07-02 07:17:00,60.8,55.0,30.12,WNW,297,1.0,-999.0,80,-99.99,,,0.00,weatherlink.com 1.10,2013-07-02 12:17:00,
2013-07-02 07:31:00,62.2,55.0,30.11,NW,314,2.0,-999.0,78,-99.99,,,0.00,weatherlink.com 1.10,2013-07-02 12:31:00,
2013-07-02 07:46:00,63.0,55.0,30.11,NNW,335,1.0,-999.0,75,-99.99,,,0.00,weatherlink.com 1.10,2013-07-02 12:46:00,
2013-07-02 08:00:00,64.4,55.0,30.11,NNW,338,1.0,-999.0,72,-99.99,,,0.00,weatherlink.com 1.10,2013-07-02 13:00:00,
2013-07-02 08:14:00,65.6,57.0,30.11,NW,320,0.0,-999.0,75,-99.99,,,0.00,weatherlink.com 1.10,2013-07-02 13:14:00,
2013-07-02 08:29:00,66.6,57.0,30.11,NW,315,1.0,-999.0,70,-99.99,,,0.00,weatherlink.com 1.10,2013-07-02 13:29:00,
2013-07-02 08:43:00,67.4,57.0,30.11,NW,321,2.0,-999.0,69,-99.99,,,0.00,weatherlink.com 1.10,2013-07-02 13:43:00,
2013-07-02 08:57:00,67.9,55.0,30.11,NE,38,1.0,-999.0,64,-99.99,,,0.00,weatherlink.com 1.10,2013-07-02 13:57:00,
2013-07-02 09:11:00,69.0,55.0,30.11,North,6,0.0,-999.0,61,-99.99,,,0.00,weatherlink.com 1.10,2013-07-02 14:11:00,
2013-07-02 09:26:00,69.8,55.0,30.11,NNW,343,3.0,-999.0,59,-99.99,,,0.00,weatherlink.com 1.10,2013-07-02 14:26:00,
2013-07-02 09:40:00,70.7,54.0,30.10,NNW,331,3.0,-999.0,55,-99.99,,,0.00,weatherlink.com 1.10,2013-07-02 14:40:00,
2013-07-02 09:54:00,71.6,54.0,30.10,NW,324,4.0,-999.0,53,-99.99,,,0.00,weatherlink.com 1.10,2013-07-02 14:54:00,
2013-07-02 10:09:00,72.6,54.0,30.10,North,7,1.0,-999.0,52,-99.99,,,0.00,weatherlink.com 1.10,2013-07-02 15:09:00,
2013-07-02 10:23:00,73.8,56.0,30.10,North,2,3.0,-999.0,53,-99.99,,,0.00,weatherlink.com 1.10,2013-07-02 15:23:00,
2013-07-02 10:37:00,74.1,55.0,30.10,North,8,4.0,-999.0,51,-99.99,,,0.00,weatherlink.com 1.10,2013-07-02 15:37:00,
2013-07-02 10:52:00,74.9,52.0,30.09,North,2,3.0,-999.0,45,-99.99,,,0.00,weatherlink.com 1.10,2013-07-02 15:52:00,
2013-07-02 11:06:00,75.6,55.0,30.09,NNE,13,3.0,-999.0,48,-99.99,,,0.00,weatherlink.com 1.10,2013-07-02 16:06:00,
2013-07-02 11:20:00,76.3,54.0,30.09,WNW,293,3.0,-999.0,46,-99.99,,,0.00,weatherlink.com 1.10,2013-07-02 16:20:00,
2013-07-02 11:35:00,77.1,57.0,30.09,NNE,25,1.0,-999.0,50,-99.99,,,0.00,weatherlink.com 1.10,2013-07-02 16:35:00,
2013-07-02 11:49:00,77.5,53.0,30.09,North,10,3.0,-999.0,42,-99.99,,,0.00,weatherlink.com 1.10,2013-07-02 16:49:00,
2013-07-02 12:03:00,77.8,52.0,30.09,NNW,331,2.0,-999.0,40,-99.99,,,0.00,weatherlink.com 1.10,2013-07-02 17:03:00,
2013-07-02 12:18:00,78.5,53.0,30.09,NNE,19,0.0,-999.0,42,-99.99,,,0.00,weatherlink.com 1.10,2013-07-02 17:18:00,
2013-07-02 12:32:00,78.7,52.0,30.09,North,2,1.0,-999.0,39,-99.99,,,0.00,weatherlink.com 1.10,2013-07-02 17:32:00,
2013-07-02 12:47:00,78.9,55.0,30.09,North,7,4.0,-999.0,44,-99.99,,,0.00,weatherlink.com 1.10,2013-07-02 17:47:00,
2013-07-02 13:01:00,78.7,52.0,30.08,North,10,2.0,-999.0,40,-99.99,,,0.00,weatherlink.com 1.10,2013-07-02 18:01:00,
2013-07-02 13:15:00,79.7,53.0,30.08,NW,323,5.0,-999.0,39,-99.99,,,0.00,weatherlink.com 1.10,2013-07-02 18:15:00,
2013-07-02 13:30:00,79.3,54.0,30.08,North,3,5.0,-999.0,41,-99.99,,,0.00,weatherlink.com 1.10,2013-07-02 18:30:00,
2013-07-02 13:44:00,80.0,55.0,30.07,NNW,341,4.0,-999.0,43,-99.99,,,0.00,weatherlink.com 1.10,2013-07-02 18:44:00,
2013-07-02 13:58:00,79.5,54.0,30.07,North,354,2.0,-999.0,42,-99.99,,,0.00,weatherlink.com 1.10,2013-07-02 18:58:00,
2013-07-02 14:12:00,79.9,54.0,30.07,North,349,3.0,-999.0,41,-99.99,,,0.00,weatherlink.com 1.10,2013-07-02 19:12:00,
2013-07-02 14:27:00,80.0,55.0,30.06,NNE,12,0.0,-999.0,42,-99.99,,,0.00,weatherlink.com 1.10,2013-07-02 19:27:00,
2013-07-02 14:41:00,80.1,56.0,30.06,NE,50,5.0,-999.0,44,-99.99,,,0.00,weatherlink.com 1.10,2013-07-02 19:41:00,
2013-07-02 14:55:00,80.6,55.0,30.06,North,358,5.0,-999.0,42,-99.99,,,0.00,weatherlink.com 1.10,2013-07-02 19:55:00,
2013-07-02 15:09:00,80.3,54.0,30.06,NNW,337,3.0,-999.0,41,-99.99,,,0.00,weatherlink.com 1.10,2013-07-02 20:09:00,
2013-07-02 15:24:00,80.6,55.0,30.05,WNW,292,0.0,-999.0,42,-99.99,,,0.00,weatherlink.com 1.10,2013-07-02 20:24:00,
2013-07-02 15:38:00,80.8,54.0,30.05,NNE,18,6.0,-999.0,40,-99.99,,,0.00,weatherlink.com 1.10,2013-07-02 20:38:00,
2013-07-02 15:52:00,80.7,54.0,30.05,North,359,3.0,-999.0,40,-99.99,,,0.00,weatherlink.com 1.10,2013-07-02 20:52:00,
2013-07-02 16:07:00,80.6,53.0,30.04,NW,312,0.0,-999.0,39,-99.99,,,0.00,weatherlink.com 1.10,2013-07-02 21:07:00,
2013-07-02 16:21:00,81.1,55.0,30.04,NW,322,4.0,-999.0,41,-99.99,,,0.00,weatherlink.com 1.10,2013-07-02 21:21:00,
2013-07-02 16:35:00,80.5,55.0,30.03,North,350,3.0,-999.0,41,-99.99,,,0.00,weatherlink.com 1.10,2013-07-02 21:35:00,
2013-07-02 16:49:00,81.0,56.0,30.03,North,360,5.0,-999.0,43,-99.99,,,0.00,weatherlink.com 1.10,2013-07-02 21:49:00,
2013-07-02 17:04:00,80.6,58.0,30.03,WSW,252,1.0,-999.0,46,-99.99,,,0.00,weatherlink.com 1.10,2013-07-02 22:04:00,
2013-07-02 17:18:00,80.7,55.0,30.03,ENE,77,4.0,-999.0,42,-99.99,,,0.00,weatherlink.com 1.10,2013-07-02 22:18:00,
2013-07-02 17:32:00,80.6,54.0,30.02,North,7,3.0,-999.0,40,-99.99,,,0.00,weatherlink.com 1.10,2013-07-02 22:32:00,
2013-07-02 17:46:00,80.4,55.0,30.02,NW,324,4.0,-999.0,41,-99.99,,,0.00,weatherlink.com 1.10,2013-07-02 22:46:00,
2013-07-02 18:01:00,80.2,55.0,30.02,NNE,21,3.0,-999.0,42,-99.99,,,0.00,weatherlink.com 1.10,2013-07-02 23:01:00,
2013-07-02 18:15:00,80.2,56.0,30.02,ENE,75,7.0,-999.0,43,-99.99,,,0.00,weatherlink.com 1.10,2013-07-02 23:15:00,
2013-07-02 18:30:00,79.9,57.0,30.02,NNE,16,1.0,-999.0,45,-99.99,,,0.00,weatherlink.com 1.10,2013-07-02 23:30:00,
2013-07-02 18:44:00,79.7,54.0,30.02,NNE,16,1.0,-999.0,41,-99.99,,,0.00,weatherlink.com 1.10,2013-07-02 23:44:00,
2013-07-02 18:58:00,79.5,55.0,30.01,North,8,3.0,-999.0,43,-99.99,,,0.00,weatherlink.com 1.10,2013-07-02 23:58:00,
2013-07-02 19:12:00,79.0,55.0,30.01,NNE,20,2.0,-999.0,44,-99.99,,,0.00,weatherlink.com 1.10,2013-07-03 00:12:00,
2013-07-02 19:27:00,78.7,55.0,30.01,North,11,1.0,-999.0,44,-99.99,,,0.00,weatherlink.com 1.10,2013-07-03 00:27:00,
2013-07-02 19:41:00,78.2,55.0,30.01,North,6,4.0,-999.0,45,-99.99,,,0.00,weatherlink.com 1.10,2013-07-03 00:41:00,
2013-07-02 19:55:00,77.5,54.0,30.01,NNE,15,3.0,-999.0,45,-99.99,,,0.00,weatherlink.com 1.10,2013-07-03 00:55:00,
2013-07-02 20:09:00,77.1,55.0,30.00,NNE,25,4.0,-999.0,46,-99.99,,,0.00,weatherlink.com 1.10,2013-07-03 01:09:00,
2013-07-02 20:24:00,76.4,55.0,30.00,NNE,18,1.0,-999.0,47,-99.99,,,0.00,weatherlink.com 1.10,2013-07-03 01:24:00,
2013-07-02 20:38:00,75.7,55.0,30.00,NNE,18,0.0,-999.0,48,-99.99,,,0.00,weatherlink.com 1.10,2013-07-03 01:38:00,
2013-07-02 21:06:00,73.1,56.0,30.01,NNE,18,0.0,-999.0,56,-99.99,,,0.00,weatherlink.com 1.10,2013-07-03 02:06:00,
2013-07-02 21:21:00,70.8,56.0,30.01,NNE,18,0.0,-999.0,60,-99.99,,,0.00,weatherlink.com 1.10,2013-07-03 02:21:00,
2013-07-02 21:49:00,67.2,57.0,30.02,NNE,18,0.0,-999.0,70,-99.99,,,0.00,weatherlink.com 1.10,2013-07-03 02:49:00,
2013-07-02 22:03:00,66.3,58.0,30.02,NNE,18,0.0,-999.0,75,-99.99,,,0.00,weatherlink.com 1.10,2013-07-03 03:03:00,
2013-07-02 22:18:00,66.1,56.0,30.03,NNE,18,0.0,-999.0,69,-99.99,,,0.00,weatherlink.com 1.10,2013-07-03 03:18:00,
2013-07-02 22:32:00,65.9,56.0,30.02,NNE,18,0.0,-999.0,70,-99.99,,,0.00,weatherlink.com 1.10,2013-07-03 03:32:00,
2013-07-02 22:46:00,65.1,57.0,30.02,NNE,18,0.0,-999.0,75,-99.99,,,0.00,weatherlink.com 1.10,2013-07-03 03:46:00,
2013-07-02 23:00:00,64.1,57.0,30.02,NNE,18,0.0,-999.0,79,-99.99,,,0.00,weatherlink.com 1.10,2013-07-03 04:00:00,
2013-07-02 23:15:00,64.0,58.0,30.02,NNE,18,0.0,-999.0,80,-99.99,,,0.00,weatherlink.com 1.10,2013-07-03 04:15:00,
2013-07-02 23:29:00,62.9,58.0,30.03,NNE,18,0.0,-999.0,85,-99.99,,,0.00,weatherlink.com 1.10,2013-07-03 04:29:00,
2013-07-02 23:43:00,62.8,58.0,30.03,NNE,18,0.0,-999.0,84,-99.99,,,0.00,weatherlink.com 1.10,2013-07-03 04:43:00,
2013-07-02 23:57:00,62.3,57.0,30.02,NNE,18,0.0,-999.0,84,-99.99,,,0.00,weatherlink.com 1.10,2013-07-03 04:57:00,